sensor_id;sensor_type;location;lat;lon;timestamp;P1;durP1;ratioP1;P2;durP2;ratioP2
27533;SDS011;14973;51.460;7.008;2023-03-18T00:01:09;11.48;;;4.00;;
27533;SDS011;14973;51.460;7.008;2023-03-18T00:03:35;12.98;;;4.05;;
27533;SDS011;14973;51.460;7.008;2023-03-18T00:06:12;13.50;;;4.60;;
27533;SDS011;14973;51.460;7.008;2023-03-18T00:08:40;18.33;;;4.50;;
27533;SDS011;14973;51.460;7.008;2023-03-18T00:11:07;14.30;;;4.43;;
27533;SDS011;14973;51.460;7.008;2023-03-18T00:13:35;18.50;;;4.90;;
27533;SDS011;14973;51.460;7.008;2023-03-18T00:16:02;12.50;;;4.40;;
27533;SDS011;14973;51.460;7.008;2023-03-18T00:18:29;13.25;;;4.70;;
27533;SDS011;14973;51.460;7.008;2023-03-18T00:20:55;11.13;;;4.35;;
27533;SDS011;14973;51.460;7.008;2023-03-18T00:23:22;12.20;;;4.70;;
27533;SDS011;14973;51.460;7.008;2023-03-18T00:25:50;9.80;;;3.97;;
27533;SDS011;14973;51.460;7.008;2023-03-18T00:28:17;12.48;;;4.80;;
27533;SDS011;14973;51.460;7.008;2023-03-18T00:30:42;20.73;;;4.43;;
27533;SDS011;14973;51.460;7.008;2023-03-18T00:33:09;17.48;;;4.55;;
27533;SDS011;14973;51.460;7.008;2023-03-18T00:35:35;19.40;;;4.70;;
27533;SDS011;14973;51.460;7.008;2023-03-18T00:38:01;12.68;;;4.57;;
27533;SDS011;14973;51.460;7.008;2023-03-18T00:40:28;14.55;;;5.13;;
27533;SDS011;14973;51.460;7.008;2023-03-18T00:43:07;15.50;;;4.70;;
27533;SDS011;14973;51.460;7.008;2023-03-18T00:45:37;17.15;;;4.72;;
27533;SDS011;14973;51.460;7.008;2023-03-18T00:48:04;22.02;;;4.85;;
27533;SDS011;14973;51.460;7.008;2023-03-18T00:50:31;12.70;;;4.75;;
27533;SDS011;14973;51.460;7.008;2023-03-18T00:52:58;14.57;;;4.95;;
27533;SDS011;14973;51.460;7.008;2023-03-18T00:55:23;22.05;;;5.15;;
27533;SDS011;14973;51.460;7.008;2023-03-18T00:57:50;24.85;;;5.07;;
27533;SDS011;14973;51.460;7.008;2023-03-18T01:00:16;10.55;;;4.63;;
27533;SDS011;14973;51.460;7.008;2023-03-18T01:02:43;12.77;;;4.50;;
27533;SDS011;14973;51.460;7.008;2023-03-18T01:05:11;18.85;;;5.57;;
27533;SDS011;14973;51.460;7.008;2023-03-18T01:07:38;16.77;;;5.45;;
27533;SDS011;14973;51.460;7.008;2023-03-18T01:10:04;13.32;;;5.60;;
27533;SDS011;14973;51.460;7.008;2023-03-18T01:12:30;15.90;;;5.32;;
27533;SDS011;14973;51.460;7.008;2023-03-18T01:14:57;17.10;;;5.22;;
27533;SDS011;14973;51.460;7.008;2023-03-18T01:17:23;17.33;;;5.00;;
27533;SDS011;14973;51.460;7.008;2023-03-18T01:19:49;16.95;;;5.65;;
27533;SDS011;14973;51.460;7.008;2023-03-18T01:22:16;13.98;;;5.28;;
27533;SDS011;14973;51.460;7.008;2023-03-18T01:24:42;22.05;;;6.88;;
27533;SDS011;14973;51.460;7.008;2023-03-18T01:27:09;18.30;;;5.00;;
27533;SDS011;14973;51.460;7.008;2023-03-18T01:29:35;20.17;;;5.63;;
27533;SDS011;14973;51.460;7.008;2023-03-18T01:32:00;16.90;;;5.45;;
27533;SDS011;14973;51.460;7.008;2023-03-18T01:34:27;14.77;;;5.68;;
27533;SDS011;14973;51.460;7.008;2023-03-18T01:36:52;15.82;;;4.63;;
27533;SDS011;14973;51.460;7.008;2023-03-18T01:39:19;13.63;;;5.25;;
27533;SDS011;14973;51.460;7.008;2023-03-18T01:41:45;16.52;;;5.40;;
27533;SDS011;14973;51.460;7.008;2023-03-18T01:44:17;20.60;;;5.38;;
27533;SDS011;14973;51.460;7.008;2023-03-18T01:46:45;18.45;;;4.97;;
27533;SDS011;14973;51.460;7.008;2023-03-18T01:49:16;17.90;;;5.18;;
27533;SDS011;14973;51.460;7.008;2023-03-18T01:51:47;19.98;;;6.88;;
27533;SDS011;14973;51.460;7.008;2023-03-18T01:54:16;16.63;;;5.72;;
27533;SDS011;14973;51.460;7.008;2023-03-18T01:56:44;13.57;;;5.05;;
27533;SDS011;14973;51.460;7.008;2023-03-18T01:59:11;15.45;;;5.65;;
27533;SDS011;14973;51.460;7.008;2023-03-18T02:01:47;18.27;;;5.47;;
27533;SDS011;14973;51.460;7.008;2023-03-18T02:04:24;14.93;;;5.95;;
27533;SDS011;14973;51.460;7.008;2023-03-18T02:06:55;18.63;;;6.43;;
27533;SDS011;14973;51.460;7.008;2023-03-18T02:09:22;17.33;;;5.55;;
27533;SDS011;14973;51.460;7.008;2023-03-18T02:11:48;15.43;;;5.07;;
27533;SDS011;14973;51.460;7.008;2023-03-18T02:14:17;14.80;;;5.00;;
27533;SDS011;14973;51.460;7.008;2023-03-18T02:16:51;10.48;;;4.75;;
27533;SDS011;14973;51.460;7.008;2023-03-18T02:19:31;21.83;;;5.97;;
27533;SDS011;14973;51.460;7.008;2023-03-18T02:27:50;9.63;;;4.53;;
27533;SDS011;14973;51.460;7.008;2023-03-18T02:30:22;12.98;;;5.05;;
27533;SDS011;14973;51.460;7.008;2023-03-18T02:32:52;18.45;;;5.20;;
27533;SDS011;14973;51.460;7.008;2023-03-18T02:35:20;14.70;;;5.20;;
27533;SDS011;14973;51.460;7.008;2023-03-18T02:37:46;14.48;;;5.38;;
27533;SDS011;14973;51.460;7.008;2023-03-18T02:40:16;13.23;;;4.88;;
27533;SDS011;14973;51.460;7.008;2023-03-18T02:42:44;13.70;;;4.97;;
27533;SDS011;14973;51.460;7.008;2023-03-18T02:45:13;16.58;;;5.38;;
27533;SDS011;14973;51.460;7.008;2023-03-18T02:48:02;12.45;;;5.13;;
27533;SDS011;14973;51.460;7.008;2023-03-18T02:50:31;12.75;;;5.35;;
27533;SDS011;14973;51.460;7.008;2023-03-18T02:52:57;16.33;;;4.93;;
27533;SDS011;14973;51.460;7.008;2023-03-18T02:55:23;13.07;;;5.40;;
27533;SDS011;14973;51.460;7.008;2023-03-18T02:57:48;16.80;;;5.00;;
27533;SDS011;14973;51.460;7.008;2023-03-18T03:00:14;15.60;;;5.82;;
27533;SDS011;14973;51.460;7.008;2023-03-18T03:02:40;20.17;;;6.15;;
27533;SDS011;14973;51.460;7.008;2023-03-18T03:05:06;19.45;;;5.97;;
27533;SDS011;14973;51.460;7.008;2023-03-18T03:07:33;16.92;;;6.25;;
27533;SDS011;14973;51.460;7.008;2023-03-18T03:09:59;21.83;;;6.10;;
27533;SDS011;14973;51.460;7.008;2023-03-18T03:12:29;18.38;;;5.93;;
27533;SDS011;14973;51.460;7.008;2023-03-18T03:14:55;19.90;;;5.80;;
27533;SDS011;14973;51.460;7.008;2023-03-18T03:17:21;15.57;;;5.68;;
27533;SDS011;14973;51.460;7.008;2023-03-18T03:19:46;13.32;;;5.70;;
27533;SDS011;14973;51.460;7.008;2023-03-18T03:22:12;16.75;;;5.68;;
27533;SDS011;14973;51.460;7.008;2023-03-18T03:24:38;19.23;;;6.35;;
27533;SDS011;14973;51.460;7.008;2023-03-18T03:27:04;13.88;;;5.72;;
27533;SDS011;14973;51.460;7.008;2023-03-18T03:29:30;17.05;;;5.70;;
27533;SDS011;14973;51.460;7.008;2023-03-18T03:31:55;18.77;;;6.15;;
27533;SDS011;14973;51.460;7.008;2023-03-18T03:34:21;12.55;;;5.75;;
27533;SDS011;14973;51.460;7.008;2023-03-18T03:36:47;17.45;;;6.20;;
27533;SDS011;14973;51.460;7.008;2023-03-18T03:39:12;21.95;;;6.50;;
27533;SDS011;14973;51.460;7.008;2023-03-18T03:41:38;19.67;;;6.20;;
27533;SDS011;14973;51.460;7.008;2023-03-18T03:44:04;20.63;;;6.30;;
27533;SDS011;14973;51.460;7.008;2023-03-18T03:46:30;16.73;;;5.95;;
27533;SDS011;14973;51.460;7.008;2023-03-18T03:48:56;14.93;;;6.07;;
27533;SDS011;14973;51.460;7.008;2023-03-18T03:51:21;14.20;;;6.00;;
27533;SDS011;14973;51.460;7.008;2023-03-18T03:53:47;15.27;;;5.82;;
27533;SDS011;14973;51.460;7.008;2023-03-18T03:56:14;17.33;;;6.07;;
27533;SDS011;14973;51.460;7.008;2023-03-18T03:58:41;20.90;;;6.55;;
27533;SDS011;14973;51.460;7.008;2023-03-18T04:01:07;11.32;;;5.78;;
27533;SDS011;14973;51.460;7.008;2023-03-18T04:03:32;17.05;;;6.53;;
27533;SDS011;14973;51.460;7.008;2023-03-18T04:05:58;15.00;;;6.95;;
27533;SDS011;14973;51.460;7.008;2023-03-18T04:08:24;21.52;;;7.60;;
27533;SDS011;14973;51.460;7.008;2023-03-18T04:10:51;19.67;;;6.80;;
27533;SDS011;14973;51.460;7.008;2023-03-18T04:13:17;15.82;;;7.00;;
27533;SDS011;14973;51.460;7.008;2023-03-18T04:15:42;13.05;;;6.50;;
27533;SDS011;14973;51.460;7.008;2023-03-18T04:18:09;18.85;;;7.93;;
27533;SDS011;14973;51.460;7.008;2023-03-18T04:20:35;25.00;;;7.00;;
27533;SDS011;14973;51.460;7.008;2023-03-18T04:23:02;20.73;;;6.78;;
27533;SDS011;14973;51.460;7.008;2023-03-18T04:25:28;21.80;;;7.32;;
27533;SDS011;14973;51.460;7.008;2023-03-18T04:27:54;15.82;;;8.35;;
27533;SDS011;14973;51.460;7.008;2023-03-18T04:30:20;16.98;;;7.43;;
27533;SDS011;14973;51.460;7.008;2023-03-18T04:32:47;20.52;;;7.90;;
27533;SDS011;14973;51.460;7.008;2023-03-18T04:35:14;18.75;;;7.22;;
27533;SDS011;14973;51.460;7.008;2023-03-18T04:37:41;13.68;;;7.65;;
27533;SDS011;14973;51.460;7.008;2023-03-18T04:40:07;21.75;;;8.52;;
27533;SDS011;14973;51.460;7.008;2023-03-18T04:42:34;19.83;;;7.80;;
27533;SDS011;14973;51.460;7.008;2023-03-18T04:45:00;21.88;;;8.40;;
27533;SDS011;14973;51.460;7.008;2023-03-18T04:47:26;26.92;;;7.95;;
27533;SDS011;14973;51.460;7.008;2023-03-18T04:49:52;17.77;;;8.40;;
27533;SDS011;14973;51.460;7.008;2023-03-18T04:52:18;24.92;;;7.70;;
27533;SDS011;14973;51.460;7.008;2023-03-18T04:54:44;21.63;;;7.85;;
27533;SDS011;14973;51.460;7.008;2023-03-18T04:57:10;18.85;;;7.75;;
27533;SDS011;14973;51.460;7.008;2023-03-18T04:59:36;26.25;;;8.95;;
27533;SDS011;14973;51.460;7.008;2023-03-18T05:02:02;15.55;;;8.05;;
27533;SDS011;14973;51.460;7.008;2023-03-18T05:04:28;16.15;;;7.97;;
27533;SDS011;14973;51.460;7.008;2023-03-18T05:06:54;23.77;;;7.70;;
27533;SDS011;14973;51.460;7.008;2023-03-18T05:09:20;18.92;;;8.30;;
27533;SDS011;14973;51.460;7.008;2023-03-18T05:11:45;17.48;;;7.78;;
27533;SDS011;14973;51.460;7.008;2023-03-18T05:14:11;13.52;;;7.80;;
27533;SDS011;14973;51.460;7.008;2023-03-18T05:16:37;11.63;;;6.72;;
27533;SDS011;14973;51.460;7.008;2023-03-18T05:19:03;14.70;;;7.15;;
27533;SDS011;14973;51.460;7.008;2023-03-18T05:21:28;20.58;;;9.00;;
27533;SDS011;14973;51.460;7.008;2023-03-18T05:23:54;14.45;;;6.63;;
27533;SDS011;14973;51.460;7.008;2023-03-18T05:26:20;19.75;;;8.43;;
27533;SDS011;14973;51.460;7.008;2023-03-18T05:28:45;15.15;;;7.88;;
27533;SDS011;14973;51.460;7.008;2023-03-18T05:31:11;18.05;;;7.82;;
27533;SDS011;14973;51.460;7.008;2023-03-18T05:33:37;15.77;;;7.35;;
27533;SDS011;14973;51.460;7.008;2023-03-18T05:36:02;20.30;;;7.75;;
27533;SDS011;14973;51.460;7.008;2023-03-18T05:38:28;19.65;;;7.93;;
27533;SDS011;14973;51.460;7.008;2023-03-18T05:40:54;16.92;;;7.25;;
27533;SDS011;14973;51.460;7.008;2023-03-18T05:43:20;18.05;;;7.05;;
27533;SDS011;14973;51.460;7.008;2023-03-18T05:45:46;13.30;;;6.15;;
27533;SDS011;14973;51.460;7.008;2023-03-18T05:48:12;16.48;;;6.75;;
27533;SDS011;14973;51.460;7.008;2023-03-18T05:50:39;18.95;;;7.60;;
27533;SDS011;14973;51.460;7.008;2023-03-18T05:53:06;17.48;;;7.72;;
27533;SDS011;14973;51.460;7.008;2023-03-18T05:55:33;16.42;;;7.05;;
27533;SDS011;14973;51.460;7.008;2023-03-18T05:57:59;16.15;;;7.18;;
27533;SDS011;14973;51.460;7.008;2023-03-18T06:00:29;15.63;;;6.45;;
27533;SDS011;14973;51.460;7.008;2023-03-18T06:02:55;19.52;;;6.78;;
27533;SDS011;14973;51.460;7.008;2023-03-18T06:05:22;20.25;;;7.15;;
27533;SDS011;14973;51.460;7.008;2023-03-18T06:07:49;13.80;;;7.50;;
27533;SDS011;14973;51.460;7.008;2023-03-18T06:10:15;16.63;;;7.25;;
27533;SDS011;14973;51.460;7.008;2023-03-18T06:12:42;20.77;;;7.13;;
27533;SDS011;14973;51.460;7.008;2023-03-18T06:15:09;17.63;;;7.28;;
27533;SDS011;14973;51.460;7.008;2023-03-18T06:17:36;16.67;;;7.00;;
27533;SDS011;14973;51.460;7.008;2023-03-18T06:20:03;20.17;;;6.93;;
27533;SDS011;14973;51.460;7.008;2023-03-18T06:22:29;13.10;;;7.10;;
27533;SDS011;14973;51.460;7.008;2023-03-18T06:24:56;20.90;;;7.10;;
27533;SDS011;14973;51.460;7.008;2023-03-18T06:27:22;19.42;;;7.57;;
27533;SDS011;14973;51.460;7.008;2023-03-18T06:29:48;15.55;;;7.22;;
27533;SDS011;14973;51.460;7.008;2023-03-18T06:32:14;18.80;;;7.32;;
27533;SDS011;14973;51.460;7.008;2023-03-18T06:34:39;13.93;;;7.75;;
27533;SDS011;14973;51.460;7.008;2023-03-18T06:37:05;17.35;;;7.75;;
27533;SDS011;14973;51.460;7.008;2023-03-18T06:39:31;14.55;;;7.60;;
27533;SDS011;14973;51.460;7.008;2023-03-18T06:41:58;14.57;;;7.40;;
27533;SDS011;14973;51.460;7.008;2023-03-18T06:44:24;19.88;;;8.60;;
27533;SDS011;14973;51.460;7.008;2023-03-18T06:46:50;16.30;;;7.85;;
27533;SDS011;14973;51.460;7.008;2023-03-18T06:49:16;16.55;;;7.78;;
27533;SDS011;14973;51.460;7.008;2023-03-18T06:51:42;17.13;;;7.65;;
27533;SDS011;14973;51.460;7.008;2023-03-18T06:54:08;23.38;;;8.45;;
27533;SDS011;14973;51.460;7.008;2023-03-18T06:56:34;14.75;;;7.70;;
27533;SDS011;14973;51.460;7.008;2023-03-18T06:59:05;18.83;;;7.95;;
27533;SDS011;14973;51.460;7.008;2023-03-18T07:01:32;14.23;;;6.95;;
27533;SDS011;14973;51.460;7.008;2023-03-18T07:03:58;15.40;;;7.18;;
27533;SDS011;14973;51.460;7.008;2023-03-18T07:06:27;17.95;;;6.85;;
27533;SDS011;14973;51.460;7.008;2023-03-18T07:08:54;18.67;;;6.57;;
27533;SDS011;14973;51.460;7.008;2023-03-18T07:11:20;15.27;;;7.07;;
27533;SDS011;14973;51.460;7.008;2023-03-18T07:13:46;14.77;;;6.93;;
27533;SDS011;14973;51.460;7.008;2023-03-18T07:16:13;18.15;;;7.82;;
27533;SDS011;14973;51.460;7.008;2023-03-18T07:18:38;14.18;;;6.50;;
27533;SDS011;14973;51.460;7.008;2023-03-18T07:21:04;12.38;;;7.07;;
27533;SDS011;14973;51.460;7.008;2023-03-18T07:23:30;14.70;;;6.30;;
27533;SDS011;14973;51.460;7.008;2023-03-18T07:25:56;16.95;;;6.97;;
27533;SDS011;14973;51.460;7.008;2023-03-18T07:28:22;16.75;;;6.95;;
27533;SDS011;14973;51.460;7.008;2023-03-18T07:30:48;18.15;;;7.00;;
27533;SDS011;14973;51.460;7.008;2023-03-18T07:33:14;15.45;;;6.13;;
27533;SDS011;14973;51.460;7.008;2023-03-18T07:35:40;16.02;;;6.60;;
27533;SDS011;14973;51.460;7.008;2023-03-18T07:38:06;12.57;;;6.25;;
27533;SDS011;14973;51.460;7.008;2023-03-18T07:40:33;10.98;;;6.60;;
27533;SDS011;14973;51.460;7.008;2023-03-18T07:42:59;12.00;;;6.50;;
27533;SDS011;14973;51.460;7.008;2023-03-18T07:45:25;14.73;;;6.30;;
27533;SDS011;14973;51.460;7.008;2023-03-18T07:47:51;13.60;;;5.57;;
27533;SDS011;14973;51.460;7.008;2023-03-18T07:50:17;10.95;;;6.22;;
27533;SDS011;14973;51.460;7.008;2023-03-18T07:52:42;8.90;;;5.18;;
27533;SDS011;14973;51.460;7.008;2023-03-18T07:55:09;8.57;;;4.40;;
27533;SDS011;14973;51.460;7.008;2023-03-18T07:57:36;13.35;;;4.43;;
27533;SDS011;14973;51.460;7.008;2023-03-18T08:00:02;7.05;;;4.45;;
27533;SDS011;14973;51.460;7.008;2023-03-18T08:02:29;12.50;;;4.72;;
27533;SDS011;14973;51.460;7.008;2023-03-18T08:04:55;17.10;;;5.35;;
27533;SDS011;14973;51.460;7.008;2023-03-18T08:07:21;9.52;;;3.92;;
27533;SDS011;14973;51.460;7.008;2023-03-18T08:09:48;9.85;;;3.78;;
27533;SDS011;14973;51.460;7.008;2023-03-18T08:12:14;8.40;;;3.65;;
27533;SDS011;14973;51.460;7.008;2023-03-18T08:14:40;7.57;;;3.67;;
27533;SDS011;14973;51.460;7.008;2023-03-18T08:17:07;11.73;;;5.97;;
27533;SDS011;14973;51.460;7.008;2023-03-18T08:19:33;9.75;;;4.72;;
27533;SDS011;14973;51.460;7.008;2023-03-18T08:21:58;8.27;;;5.60;;
27533;SDS011;14973;51.460;7.008;2023-03-18T08:24:24;9.20;;;4.60;;
27533;SDS011;14973;51.460;7.008;2023-03-18T08:26:50;9.18;;;4.15;;
27533;SDS011;14973;51.460;7.008;2023-03-18T08:29:16;6.80;;;3.42;;
27533;SDS011;14973;51.460;7.008;2023-03-18T08:31:41;6.70;;;2.90;;
27533;SDS011;14973;51.460;7.008;2023-03-18T08:34:07;9.45;;;3.53;;
27533;SDS011;14973;51.460;7.008;2023-03-18T08:36:33;7.07;;;3.58;;
27533;SDS011;14973;51.460;7.008;2023-03-18T08:38:59;8.05;;;3.50;;
27533;SDS011;14973;51.460;7.008;2023-03-18T08:41:24;12.50;;;3.33;;
27533;SDS011;14973;51.460;7.008;2023-03-18T08:43:51;6.20;;;3.25;;
27533;SDS011;14973;51.460;7.008;2023-03-18T08:46:19;10.55;;;4.70;;
27533;SDS011;14973;51.460;7.008;2023-03-18T08:48:44;7.57;;;3.78;;
27533;SDS011;14973;51.460;7.008;2023-03-18T08:51:10;6.75;;;3.00;;
27533;SDS011;14973;51.460;7.008;2023-03-18T08:53:36;6.22;;;3.03;;
27533;SDS011;14973;51.460;7.008;2023-03-18T08:56:02;10.68;;;3.70;;
27533;SDS011;14973;51.460;7.008;2023-03-18T08:58:30;9.98;;;4.78;;
27533;SDS011;14973;51.460;7.008;2023-03-18T09:00:56;9.48;;;3.08;;
27533;SDS011;14973;51.460;7.008;2023-03-18T09:03:22;8.25;;;3.35;;
27533;SDS011;14973;51.460;7.008;2023-03-18T09:05:49;10.88;;;3.90;;
27533;SDS011;14973;51.460;7.008;2023-03-18T09:08:16;8.77;;;3.10;;
27533;SDS011;14973;51.460;7.008;2023-03-18T09:10:43;6.78;;;2.88;;
27533;SDS011;14973;51.460;7.008;2023-03-18T09:13:10;8.77;;;3.00;;
27533;SDS011;14973;51.460;7.008;2023-03-18T09:15:36;6.70;;;3.33;;
27533;SDS011;14973;51.460;7.008;2023-03-18T09:18:02;6.15;;;3.03;;
27533;SDS011;14973;51.460;7.008;2023-03-18T09:20:28;4.97;;;2.92;;
27533;SDS011;14973;51.460;7.008;2023-03-18T09:22:54;5.70;;;2.70;;
27533;SDS011;14973;51.460;7.008;2023-03-18T09:25:20;5.82;;;3.05;;
27533;SDS011;14973;51.460;7.008;2023-03-18T09:27:45;7.72;;;3.38;;
27533;SDS011;14973;51.460;7.008;2023-03-18T09:30:11;8.60;;;3.40;;
27533;SDS011;14973;51.460;7.008;2023-03-18T09:32:38;6.53;;;3.35;;
27533;SDS011;14973;51.460;7.008;2023-03-18T09:35:04;6.00;;;3.17;;
27533;SDS011;14973;51.460;7.008;2023-03-18T09:37:30;8.32;;;3.75;;
27533;SDS011;14973;51.460;7.008;2023-03-18T09:39:56;10.63;;;3.83;;
27533;SDS011;14973;51.460;7.008;2023-03-18T09:44:57;6.38;;;3.30;;
27533;SDS011;14973;51.460;7.008;2023-03-18T09:56:06;9.15;;;4.47;;
27533;SDS011;14973;51.460;7.008;2023-03-18T09:58:45;11.63;;;4.20;;
27533;SDS011;14973;51.460;7.008;2023-03-18T10:01:32;10.68;;;4.30;;
27533;SDS011;14973;51.460;7.008;2023-03-18T10:04:03;5.82;;;3.38;;
27533;SDS011;14973;51.460;7.008;2023-03-18T10:06:42;7.55;;;3.47;;
27533;SDS011;14973;51.460;7.008;2023-03-18T10:09:28;5.65;;;3.20;;
27533;SDS011;14973;51.460;7.008;2023-03-18T10:12:06;5.88;;;2.83;;
27533;SDS011;14973;51.460;7.008;2023-03-18T10:17:17;10.35;;;2.78;;
27533;SDS011;14973;51.460;7.008;2023-03-18T10:20:01;8.98;;;3.88;;
27533;SDS011;14973;51.460;7.008;2023-03-18T10:25:40;5.53;;;3.45;;
27533;SDS011;14973;51.460;7.008;2023-03-18T10:34:09;6.53;;;3.55;;
27533;SDS011;14973;51.460;7.008;2023-03-18T10:36:49;4.90;;;3.03;;
27533;SDS011;14973;51.460;7.008;2023-03-18T10:39:19;8.60;;;3.10;;
27533;SDS011;14973;51.460;7.008;2023-03-18T10:41:48;4.80;;;2.75;;
27533;SDS011;14973;51.460;7.008;2023-03-18T10:44:48;4.60;;;2.20;;
27533;SDS011;14973;51.460;7.008;2023-03-18T10:50:30;5.28;;;2.60;;
27533;SDS011;14973;51.460;7.008;2023-03-18T10:53:16;7.32;;;2.70;;
27533;SDS011;14973;51.460;7.008;2023-03-18T10:58:28;5.68;;;3.20;;
27533;SDS011;14973;51.460;7.008;2023-03-18T11:00:54;10.48;;;3.13;;
27533;SDS011;14973;51.460;7.008;2023-03-18T11:03:25;8.30;;;3.60;;
27533;SDS011;14973;51.460;7.008;2023-03-18T11:05:55;5.20;;;3.10;;
27533;SDS011;14973;51.460;7.008;2023-03-18T11:11:13;10.25;;;3.95;;
27533;SDS011;14973;51.460;7.008;2023-03-18T11:13:48;7.18;;;3.78;;
27533;SDS011;14973;51.460;7.008;2023-03-18T11:22:25;6.22;;;4.05;;
27533;SDS011;14973;51.460;7.008;2023-03-18T11:24:49;9.38;;;4.30;;
27533;SDS011;14973;51.460;7.008;2023-03-18T11:27:38;5.13;;;3.80;;
27533;SDS011;14973;51.460;7.008;2023-03-18T11:32:39;6.38;;;3.38;;
27533;SDS011;14973;51.460;7.008;2023-03-18T11:35:39;6.43;;;2.58;;
27533;SDS011;14973;51.460;7.008;2023-03-18T11:38:19;4.72;;;2.15;;
27533;SDS011;14973;51.460;7.008;2023-03-18T11:41:06;4.07;;;1.75;;
27533;SDS011;14973;51.460;7.008;2023-03-18T11:43:33;5.55;;;2.65;;
27533;SDS011;14973;51.460;7.008;2023-03-18T11:46:02;7.72;;;2.40;;
27533;SDS011;14973;51.460;7.008;2023-03-18T11:51:05;15.05;;;4.53;;
27533;SDS011;14973;51.460;7.008;2023-03-18T11:54:34;4.82;;;2.70;;
27533;SDS011;14973;51.460;7.008;2023-03-18T11:56:46;5.57;;;2.85;;
27533;SDS011;14973;51.460;7.008;2023-03-18T12:08:07;6.53;;;3.10;;
27533;SDS011;14973;51.460;7.008;2023-03-18T12:10:44;5.57;;;3.08;;
27533;SDS011;14973;51.460;7.008;2023-03-18T12:13:25;6.50;;;2.65;;
27533;SDS011;14973;51.460;7.008;2023-03-18T12:27:59;5.45;;;2.13;;
27533;SDS011;14973;51.460;7.008;2023-03-18T12:41:56;39.67;;;24.15;;
27533;SDS011;14973;51.460;7.008;2023-03-18T12:49:56;4.28;;;2.20;;
27533;SDS011;14973;51.460;7.008;2023-03-18T12:53:06;4.28;;;2.00;;
27533;SDS011;14973;51.460;7.008;2023-03-18T12:55:54;7.05;;;2.47;;
27533;SDS011;14973;51.460;7.008;2023-03-18T12:58:24;7.30;;;2.38;;
27533;SDS011;14973;51.460;7.008;2023-03-18T13:03:41;5.00;;;2.47;;
27533;SDS011;14973;51.460;7.008;2023-03-18T13:09:09;7.90;;;2.90;;
27533;SDS011;14973;51.460;7.008;2023-03-18T13:17:23;6.50;;;2.22;;
27533;SDS011;14973;51.460;7.008;2023-03-18T13:19:55;6.55;;;2.70;;
27533;SDS011;14973;51.460;7.008;2023-03-18T13:25:23;7.65;;;2.80;;
27533;SDS011;14973;51.460;7.008;2023-03-18T13:31:08;5.63;;;2.80;;
27533;SDS011;14973;51.460;7.008;2023-03-18T13:33:59;4.43;;;2.92;;
27533;SDS011;14973;51.460;7.008;2023-03-18T13:42:18;6.05;;;3.20;;
27533;SDS011;14973;51.460;7.008;2023-03-18T13:47:15;6.20;;;3.20;;
27533;SDS011;14973;51.460;7.008;2023-03-18T13:49:43;13.00;;;3.83;;
27533;SDS011;14973;51.460;7.008;2023-03-18T13:52:21;5.30;;;3.13;;
27533;SDS011;14973;51.460;7.008;2023-03-18T13:54:50;6.43;;;3.10;;
27533;SDS011;14973;51.460;7.008;2023-03-18T13:59:50;8.00;;;3.25;;
27533;SDS011;14973;51.460;7.008;2023-03-18T14:03:03;7.55;;;2.92;;
27533;SDS011;14973;51.460;7.008;2023-03-18T14:05:37;7.18;;;3.42;;
27533;SDS011;14973;51.460;7.008;2023-03-18T14:16:16;14.63;;;3.85;;
27533;SDS011;14973;51.460;7.008;2023-03-18T14:18:56;6.28;;;2.72;;
27533;SDS011;14973;51.460;7.008;2023-03-18T14:21:26;5.82;;;3.20;;
27533;SDS011;14973;51.460;7.008;2023-03-18T14:24:26;8.20;;;3.10;;
27533;SDS011;14973;51.460;7.008;2023-03-18T14:29:37;9.00;;;3.83;;
27533;SDS011;14973;51.460;7.008;2023-03-18T14:34:58;7.60;;;3.80;;
27533;SDS011;14973;51.460;7.008;2023-03-18T14:40:20;5.93;;;3.00;;
27533;SDS011;14973;51.460;7.008;2023-03-18T14:42:56;9.63;;;2.83;;
27533;SDS011;14973;51.460;7.008;2023-03-18T14:45:26;12.40;;;2.90;;
27533;SDS011;14973;51.460;7.008;2023-03-18T14:47:57;10.15;;;2.45;;
27533;SDS011;14973;51.460;7.008;2023-03-18T14:55:41;7.38;;;2.28;;
27533;SDS011;14973;51.460;7.008;2023-03-18T14:58:11;6.50;;;1.83;;
27533;SDS011;14973;51.460;7.008;2023-03-18T15:00:46;3.80;;;2.20;;
27533;SDS011;14973;51.460;7.008;2023-03-18T15:03:23;9.23;;;2.17;;
27533;SDS011;14973;51.460;7.008;2023-03-18T15:05:55;2.83;;;1.58;;
27533;SDS011;14973;51.460;7.008;2023-03-18T15:08:32;2.55;;;1.45;;
27533;SDS011;14973;51.460;7.008;2023-03-18T15:11:02;6.43;;;1.77;;
27533;SDS011;14973;51.460;7.008;2023-03-18T15:13:30;4.93;;;2.03;;
27533;SDS011;14973;51.460;7.008;2023-03-18T15:15:57;14.48;;;3.78;;
27533;SDS011;14973;51.460;7.008;2023-03-18T15:18:23;11.93;;;2.53;;
27533;SDS011;14973;51.460;7.008;2023-03-18T15:20:54;8.98;;;3.10;;
27533;SDS011;14973;51.460;7.008;2023-03-18T15:23:25;6.63;;;2.20;;
27533;SDS011;14973;51.460;7.008;2023-03-18T15:26:05;5.53;;;2.50;;
27533;SDS011;14973;51.460;7.008;2023-03-18T15:28:32;4.55;;;1.88;;
27533;SDS011;14973;51.460;7.008;2023-03-18T15:30:58;6.28;;;2.83;;
27533;SDS011;14973;51.460;7.008;2023-03-18T15:33:43;10.15;;;2.78;;
27533;SDS011;14973;51.460;7.008;2023-03-18T15:36:15;8.75;;;2.60;;
27533;SDS011;14973;51.460;7.008;2023-03-18T15:38:45;6.80;;;3.20;;
27533;SDS011;14973;51.460;7.008;2023-03-18T15:41:12;6.38;;;3.10;;
27533;SDS011;14973;51.460;7.008;2023-03-18T15:43:44;8.50;;;2.95;;
27533;SDS011;14973;51.460;7.008;2023-03-18T15:46:14;8.43;;;2.70;;
27533;SDS011;14973;51.460;7.008;2023-03-18T15:48:44;6.68;;;2.55;;
27533;SDS011;14973;51.460;7.008;2023-03-18T15:51:22;7.10;;;3.05;;
27533;SDS011;14973;51.460;7.008;2023-03-18T15:53:57;8.18;;;3.92;;
27533;SDS011;14973;51.460;7.008;2023-03-18T15:56:29;6.60;;;3.00;;
27533;SDS011;14973;51.460;7.008;2023-03-18T15:58:57;4.13;;;2.22;;
27533;SDS011;14973;51.460;7.008;2023-03-18T16:01:35;5.22;;;1.92;;
27533;SDS011;14973;51.460;7.008;2023-03-18T16:04:03;4.15;;;2.20;;
27533;SDS011;14973;51.460;7.008;2023-03-18T16:06:31;6.57;;;2.97;;
27533;SDS011;14973;51.460;7.008;2023-03-18T16:08:58;10.77;;;3.85;;
27533;SDS011;14973;51.460;7.008;2023-03-18T16:11:25;5.30;;;3.22;;
27533;SDS011;14973;51.460;7.008;2023-03-18T16:13:50;5.22;;;2.80;;
27533;SDS011;14973;51.460;7.008;2023-03-18T16:16:22;5.18;;;2.53;;
27533;SDS011;14973;51.460;7.008;2023-03-18T16:18:51;6.32;;;2.83;;
27533;SDS011;14973;51.460;7.008;2023-03-18T16:21:16;5.30;;;2.55;;
27533;SDS011;14973;51.460;7.008;2023-03-18T16:23:42;7.35;;;3.45;;
27533;SDS011;14973;51.460;7.008;2023-03-18T16:26:17;5.30;;;2.70;;
27533;SDS011;14973;51.460;7.008;2023-03-18T16:28:43;5.28;;;2.90;;
27533;SDS011;14973;51.460;7.008;2023-03-18T16:31:09;5.80;;;3.20;;
27533;SDS011;14973;51.460;7.008;2023-03-18T16:33:36;8.13;;;3.67;;
27533;SDS011;14973;51.460;7.008;2023-03-18T16:36:02;6.38;;;3.63;;
27533;SDS011;14973;51.460;7.008;2023-03-18T16:38:30;11.38;;;3.55;;
27533;SDS011;14973;51.460;7.008;2023-03-18T16:40:58;4.63;;;2.80;;
27533;SDS011;14973;51.460;7.008;2023-03-18T16:43:24;9.23;;;3.80;;
27533;SDS011;14973;51.460;7.008;2023-03-18T16:45:53;14.48;;;5.47;;
27533;SDS011;14973;51.460;7.008;2023-03-18T16:48:23;9.02;;;3.40;;
27533;SDS011;14973;51.460;7.008;2023-03-18T16:50:51;10.13;;;4.20;;
27533;SDS011;14973;51.460;7.008;2023-03-18T16:53:27;7.43;;;3.42;;
27533;SDS011;14973;51.460;7.008;2023-03-18T16:55:57;6.75;;;3.60;;
27533;SDS011;14973;51.460;7.008;2023-03-18T16:58:28;7.43;;;3.53;;
27533;SDS011;14973;51.460;7.008;2023-03-18T17:00:57;8.85;;;3.72;;
27533;SDS011;14973;51.460;7.008;2023-03-18T17:03:23;9.60;;;4.07;;
27533;SDS011;14973;51.460;7.008;2023-03-18T17:05:49;6.75;;;3.30;;
27533;SDS011;14973;51.460;7.008;2023-03-18T17:08:19;8.43;;;3.38;;